sensor_id;sensor_type;location;lat;lon;timestamp;P1;durP1;ratioP1;P2;durP2;ratioP2
14965;SDS011;7577;45.226;5.798;2022-07-01T00:32:06;0.67;;;0.67;;
14965;SDS011;7577;45.226;5.798;2022-07-01T00:35:24;0.73;;;0.50;;
14965;SDS011;7577;45.226;5.798;2022-07-01T00:59:26;0.87;;;0.70;;
14965;SDS011;7577;45.226;5.798;2022-07-01T01:01:58;0.60;;;0.60;;
14965;SDS011;7577;45.226;5.798;2022-07-01T01:04:29;1.43;;;0.60;;
14965;SDS011;7577;45.226;5.798;2022-07-01T01:07:16;0.60;;;0.60;;
14965;SDS011;7577;45.226;5.798;2022-07-01T01:09:46;0.90;;;0.60;;
14965;SDS011;7577;45.226;5.798;2022-07-01T01:22:55;0.60;;;0.50;;
14965;SDS011;7577;45.226;5.798;2022-07-01T01:28:23;1.13;;;0.70;;
14965;SDS011;7577;45.226;5.798;2022-07-01T02:31:13;1.93;;;0.80;;
14965;SDS011;7577;45.226;5.798;2022-07-01T02:33:43;0.80;;;0.80;;
14965;SDS011;7577;45.226;5.798;2022-07-01T02:36:13;0.70;;;0.70;;
14965;SDS011;7577;45.226;5.798;2022-07-01T02:38:43;1.33;;;1.23;;
14965;SDS011;7577;45.226;5.798;2022-07-01T02:41:15;0.47;;;0.47;;
14965;SDS011;7577;45.226;5.798;2022-07-01T02:43:45;1.00;;;0.90;;
14965;SDS011;7577;45.226;5.798;2022-07-01T02:46:29;0.70;;;0.70;;
14965;SDS011;7577;45.226;5.798;2022-07-01T02:48:59;1.37;;;0.73;;
14965;SDS011;7577;45.226;5.798;2022-07-01T02:51:40;0.80;;;0.70;;
14965;SDS011;7577;45.226;5.798;2022-07-01T02:54:10;1.00;;;0.80;;
14965;SDS011;7577;45.226;5.798;2022-07-01T02:56:58;0.73;;;0.60;;
14965;SDS011;7577;45.226;5.798;2022-07-01T02:59:28;0.80;;;0.77;;
14965;SDS011;7577;45.226;5.798;2022-07-01T03:01:58;2.00;;;0.80;;
14965;SDS011;7577;45.226;5.798;2022-07-01T03:04:40;0.73;;;0.73;;
14965;SDS011;7577;45.226;5.798;2022-07-01T03:07:11;2.37;;;0.60;;
14965;SDS011;7577;45.226;5.798;2022-07-01T03:09:41;0.60;;;0.60;;
14965;SDS011;7577;45.226;5.798;2022-07-01T03:12:23;1.17;;;1.07;;
14965;SDS011;7577;45.226;5.798;2022-07-01T03:14:56;0.80;;;0.80;;
14965;SDS011;7577;45.226;5.798;2022-07-01T03:17:37;1.13;;;0.60;;
14965;SDS011;7577;45.226;5.798;2022-07-01T03:20:11;0.80;;;0.80;;
14965;SDS011;7577;45.226;5.798;2022-07-01T03:22:54;2.13;;;0.80;;
14965;SDS011;7577;45.226;5.798;2022-07-01T03:25:25;0.93;;;0.70;;
14965;SDS011;7577;45.226;5.798;2022-07-01T03:28:04;0.80;;;0.70;;
14965;SDS011;7577;45.226;5.798;2022-07-01T03:30:36;1.20;;;0.73;;
14965;SDS011;7577;45.226;5.798;2022-07-01T03:33:16;1.43;;;0.70;;
14965;SDS011;7577;45.226;5.798;2022-07-01T03:35:47;0.80;;;0.80;;
14965;SDS011;7577;45.226;5.798;2022-07-01T03:38:17;0.73;;;0.70;;
14965;SDS011;7577;45.226;5.798;2022-07-01T03:40:47;1.20;;;0.80;;
14965;SDS011;7577;45.226;5.798;2022-07-01T03:43:25;0.70;;;0.70;;
14965;SDS011;7577;45.226;5.798;2022-07-01T03:45:56;1.67;;;0.90;;
14965;SDS011;7577;45.226;5.798;2022-07-01T03:48:37;1.40;;;0.90;;
14965;SDS011;7577;45.226;5.798;2022-07-01T03:51:08;0.90;;;0.90;;
14965;SDS011;7577;45.226;5.798;2022-07-01T03:53:49;1.30;;;1.00;;
14965;SDS011;7577;45.226;5.798;2022-07-01T03:56:37;1.53;;;1.20;;
14965;SDS011;7577;45.226;5.798;2022-07-01T03:59:17;1.63;;;1.43;;
14965;SDS011;7577;45.226;5.798;2022-07-01T04:01:47;1.00;;;0.90;;
14965;SDS011;7577;45.226;5.798;2022-07-01T04:04:28;1.20;;;1.10;;
14965;SDS011;7577;45.226;5.798;2022-07-01T04:06:59;1.07;;;1.03;;
14965;SDS011;7577;45.226;5.798;2022-07-01T04:09:44;4.00;;;1.50;;
14965;SDS011;7577;45.226;5.798;2022-07-01T04:12:14;1.60;;;1.50;;
14965;SDS011;7577;45.226;5.798;2022-07-01T04:14:58;3.07;;;1.63;;
14965;SDS011;7577;45.226;5.798;2022-07-01T04:17:28;1.70;;;1.60;;
14965;SDS011;7577;45.226;5.798;2022-07-01T04:20:12;2.30;;;1.60;;
14965;SDS011;7577;45.226;5.798;2022-07-01T04:22:42;1.40;;;1.30;;
14965;SDS011;7577;45.226;5.798;2022-07-01T04:25:24;1.50;;;1.40;;
14965;SDS011;7577;45.226;5.798;2022-07-01T04:27:56;1.40;;;1.30;;
14965;SDS011;7577;45.226;5.798;2022-07-01T04:30:37;3.20;;;1.17;;
14965;SDS011;7577;45.226;5.798;2022-07-01T04:33:08;1.47;;;1.37;;
14965;SDS011;7577;45.226;5.798;2022-07-01T04:35:40;2.20;;;1.60;;
14965;SDS011;7577;45.226;5.798;2022-07-01T04:38:10;1.43;;;1.20;;
14965;SDS011;7577;45.226;5.798;2022-07-01T04:40:51;1.47;;;1.37;;
14965;SDS011;7577;45.226;5.798;2022-07-01T04:43:46;2.07;;;1.00;;
14965;SDS011;7577;45.226;5.798;2022-07-01T04:46:25;2.17;;;1.20;;
14965;SDS011;7577;45.226;5.798;2022-07-01T04:48:56;1.20;;;0.97;;
14965;SDS011;7577;45.226;5.798;2022-07-01T04:51:26;1.47;;;1.10;;
14965;SDS011;7577;45.226;5.798;2022-07-01T05:04:51;1.47;;;1.10;;
14965;SDS011;7577;45.226;5.798;2022-07-01T05:07:21;1.00;;;1.00;;
14965;SDS011;7577;45.226;5.798;2022-07-01T05:20:45;2.67;;;1.10;;
14965;SDS011;7577;45.226;5.798;2022-07-01T05:23:33;0.80;;;0.80;;
14965;SDS011;7577;45.226;5.798;2022-07-01T05:26:13;1.13;;;0.80;;
14965;SDS011;7577;45.226;5.798;2022-07-01T05:28:44;1.47;;;1.03;;
14965;SDS011;7577;45.226;5.798;2022-07-01T05:31:28;1.20;;;1.10;;
14965;SDS011;7577;45.226;5.798;2022-07-01T05:33:58;2.30;;;1.40;;
14965;SDS011;7577;45.226;5.798;2022-07-01T05:36:42;2.30;;;1.10;;
14965;SDS011;7577;45.226;5.798;2022-07-01T05:39:12;1.23;;;1.13;;
14965;SDS011;7577;45.226;5.798;2022-07-01T05:52:36;1.50;;;1.40;;
14965;SDS011;7577;45.226;5.798;2022-07-01T05:55:10;1.43;;;1.33;;
14965;SDS011;7577;45.226;5.798;2022-07-01T05:57:40;2.33;;;1.40;;
14965;SDS011;7577;45.226;5.798;2022-07-01T06:00:13;3.87;;;1.40;;
14965;SDS011;7577;45.226;5.798;2022-07-01T06:03:05;2.07;;;1.40;;
14965;SDS011;7577;45.226;5.798;2022-07-01T06:05:36;2.40;;;1.40;;
14965;SDS011;7577;45.226;5.798;2022-07-01T06:08:06;2.13;;;1.93;;
14965;SDS011;7577;45.226;5.798;2022-07-01T06:10:44;1.50;;;1.40;;
14965;SDS011;7577;45.226;5.798;2022-07-01T06:13:15;1.67;;;1.57;;
14965;SDS011;7577;45.226;5.798;2022-07-01T06:15:45;1.77;;;1.50;;
14965;SDS011;7577;45.226;5.798;2022-07-01T06:28:51;1.47;;;1.10;;
14965;SDS011;7577;45.226;5.798;2022-07-01T06:44:26;1.20;;;1.10;;
14965;SDS011;7577;45.226;5.798;2022-07-01T06:46:56;1.23;;;1.07;;
14965;SDS011;7577;45.226;5.798;2022-07-01T06:49:37;1.33;;;0.90;;
14965;SDS011;7577;45.226;5.798;2022-07-01T06:52:07;1.20;;;1.10;;
14965;SDS011;7577;45.226;5.798;2022-07-01T06:54:47;1.03;;;0.83;;
14965;SDS011;7577;45.226;5.798;2022-07-01T06:57:18;3.83;;;1.20;;
14965;SDS011;7577;45.226;5.798;2022-07-01T07:00:02;1.93;;;1.30;;
14965;SDS011;7577;45.226;5.798;2022-07-01T07:02:34;1.47;;;1.00;;
14965;SDS011;7577;45.226;5.798;2022-07-01T07:15:39;1.10;;;1.00;;
14965;SDS011;7577;45.226;5.798;2022-07-01T07:18:09;1.10;;;1.00;;
14965;SDS011;7577;45.226;5.798;2022-07-01T07:20:50;0.80;;;0.80;;
14965;SDS011;7577;45.226;5.798;2022-07-01T07:23:20;1.80;;;1.00;;
14965;SDS011;7577;45.226;5.798;2022-07-01T07:25:50;2.10;;;0.90;;
14965;SDS011;7577;45.226;5.798;2022-07-01T07:28:33;1.87;;;0.90;;
14965;SDS011;7577;45.226;5.798;2022-07-01T07:31:04;2.40;;;1.30;;
14965;SDS011;7577;45.226;5.798;2022-07-01T07:33:43;1.40;;;1.00;;
14965;SDS011;7577;45.226;5.798;2022-07-01T07:36:14;2.70;;;1.40;;
14965;SDS011;7577;45.226;5.798;2022-07-01T07:38:44;1.20;;;1.10;;
14965;SDS011;7577;45.226;5.798;2022-07-01T07:41:14;1.13;;;1.07;;
14965;SDS011;7577;45.226;5.798;2022-07-01T07:43:45;1.23;;;1.03;;
14965;SDS011;7577;45.226;5.798;2022-07-01T07:46:32;1.47;;;1.00;;
14965;SDS011;7577;45.226;5.798;2022-07-01T07:49:03;1.20;;;1.10;;
14965;SDS011;7577;45.226;5.798;2022-07-01T08:02:23;2.13;;;1.40;;
14965;SDS011;7577;45.226;5.798;2022-07-01T08:04:54;1.93;;;1.20;;
14965;SDS011;7577;45.226;5.798;2022-07-01T08:07:38;1.37;;;1.27;;
14965;SDS011;7577;45.226;5.798;2022-07-01T08:10:11;2.13;;;1.40;;
14965;SDS011;7577;45.226;5.798;2022-07-01T08:12:42;2.37;;;1.40;;
14965;SDS011;7577;45.226;5.798;2022-07-01T08:15:13;1.57;;;1.37;;
14965;SDS011;7577;45.226;5.798;2022-07-01T08:17:56;3.10;;;1.53;;
14965;SDS011;7577;45.226;5.798;2022-07-01T08:20:26;1.60;;;1.30;;
14965;SDS011;7577;45.226;5.798;2022-07-01T08:22:56;2.50;;;1.30;;
14965;SDS011;7577;45.226;5.798;2022-07-01T08:25:38;1.97;;;1.13;;
14965;SDS011;7577;45.226;5.798;2022-07-01T08:28:08;2.30;;;0.97;;
14965;SDS011;7577;45.226;5.798;2022-07-01T08:30:38;1.13;;;1.03;;
14965;SDS011;7577;45.226;5.798;2022-07-01T08:33:09;1.43;;;0.90;;
14965;SDS011;7577;45.226;5.798;2022-07-01T08:35:57;1.17;;;1.00;;
14965;SDS011;7577;45.226;5.798;2022-07-01T08:38:28;1.23;;;0.90;;
14965;SDS011;7577;45.226;5.798;2022-07-01T08:41:11;0.97;;;0.87;;
14965;SDS011;7577;45.226;5.798;2022-07-01T08:43:42;1.30;;;1.20;;
14965;SDS011;7577;45.226;5.798;2022-07-01T09:00:03;1.80;;;1.10;;
14965;SDS011;7577;45.226;5.798;2022-07-01T09:02:52;1.10;;;0.93;;
14965;SDS011;7577;45.226;5.798;2022-07-01T09:19:18;2.10;;;1.10;;
14965;SDS011;7577;45.226;5.798;2022-07-01T09:21:49;1.37;;;1.23;;
14965;SDS011;7577;45.226;5.798;2022-07-01T09:24:37;1.80;;;1.50;;
14965;SDS011;7577;45.226;5.798;2022-07-01T09:27:11;1.33;;;1.23;;
14965;SDS011;7577;45.226;5.798;2022-07-01T09:29:44;2.10;;;1.90;;
14965;SDS011;7577;45.226;5.798;2022-07-01T09:32:24;2.03;;;1.57;;
14965;SDS011;7577;45.226;5.798;2022-07-01T09:34:55;2.40;;;1.50;;
14965;SDS011;7577;45.226;5.798;2022-07-01T09:37:35;1.50;;;1.40;;
14965;SDS011;7577;45.226;5.798;2022-07-01T09:40:16;1.30;;;1.20;;
14965;SDS011;7577;45.226;5.798;2022-07-01T09:42:47;2.10;;;1.50;;
14965;SDS011;7577;45.226;5.798;2022-07-01T09:45:28;1.50;;;1.03;;
14965;SDS011;7577;45.226;5.798;2022-07-01T09:48:00;2.27;;;1.50;;
14965;SDS011;7577;45.226;5.798;2022-07-01T09:50:50;3.27;;;1.50;;
14965;SDS011;7577;45.226;5.798;2022-07-01T09:53:21;1.37;;;1.27;;
14965;SDS011;7577;45.226;5.798;2022-07-01T09:56:07;1.23;;;1.13;;
14965;SDS011;7577;45.226;5.798;2022-07-01T09:58:38;0.93;;;0.90;;
14965;SDS011;7577;45.226;5.798;2022-07-01T10:01:17;1.80;;;1.07;;
14965;SDS011;7577;45.226;5.798;2022-07-01T10:03:49;1.20;;;1.10;;
14965;SDS011;7577;45.226;5.798;2022-07-01T10:06:34;1.13;;;1.03;;
14965;SDS011;7577;45.226;5.798;2022-07-01T10:09:33;3.50;;;0.90;;
14965;SDS011;7577;45.226;5.798;2022-07-01T10:12:30;0.87;;;0.87;;
14965;SDS011;7577;45.226;5.798;2022-07-01T10:15:22;1.60;;;0.90;;
14965;SDS011;7577;45.226;5.798;2022-07-01T10:17:53;0.97;;;0.80;;
14965;SDS011;7577;45.226;5.798;2022-07-01T10:20:36;0.83;;;0.83;;
14965;SDS011;7577;45.226;5.798;2022-07-01T10:23:07;1.00;;;0.80;;
14965;SDS011;7577;45.226;5.798;2022-07-01T10:25:42;1.57;;;0.87;;
14965;SDS011;7577;45.226;5.798;2022-07-01T10:28:24;3.27;;;0.80;;
14965;SDS011;7577;45.226;5.798;2022-07-01T10:30:57;1.00;;;0.70;;
14965;SDS011;7577;45.226;5.798;2022-07-01T10:33:37;0.83;;;0.63;;
14965;SDS011;7577;45.226;5.798;2022-07-01T10:36:11;0.93;;;0.90;;
14965;SDS011;7577;45.226;5.798;2022-07-01T10:41:57;2.23;;;0.90;;
14965;SDS011;7577;45.226;5.798;2022-07-01T10:44:32;0.73;;;0.70;;
14965;SDS011;7577;45.226;5.798;2022-07-01T10:47:05;1.53;;;0.70;;
14965;SDS011;7577;45.226;5.798;2022-07-01T10:49:53;0.80;;;0.80;;
14965;SDS011;7577;45.226;5.798;2022-07-01T11:03:17;0.80;;;0.80;;
14965;SDS011;7577;45.226;5.798;2022-07-01T11:05:53;0.60;;;0.60;;
14965;SDS011;7577;45.226;5.798;2022-07-01T11:08:24;0.90;;;0.60;;
14965;SDS011;7577;45.226;5.798;2022-07-01T11:10:55;0.50;;;0.50;;
14965;SDS011;7577;45.226;5.798;2022-07-01T11:13:29;0.53;;;0.53;;
14965;SDS011;7577;45.226;5.798;2022-07-01T11:26:52;1.43;;;1.00;;
14965;SDS011;7577;45.226;5.798;2022-07-01T11:29:26;0.80;;;0.80;;
14965;SDS011;7577;45.226;5.798;2022-07-01T11:42:50;0.83;;;0.57;;
14965;SDS011;7577;45.226;5.798;2022-07-01T11:45:24;1.13;;;0.60;;
14965;SDS011;7577;45.226;5.798;2022-07-01T11:58:51;1.90;;;0.73;;
14965;SDS011;7577;45.226;5.798;2022-07-01T12:01:24;0.80;;;0.70;;
14965;SDS011;7577;45.226;5.798;2022-07-01T12:03:57;0.83;;;0.83;;
14965;SDS011;7577;45.226;5.798;2022-07-01T12:17:05;0.73;;;0.70;;
14965;SDS011;7577;45.226;5.798;2022-07-01T12:22:17;0.60;;;0.60;;
14965;SDS011;7577;45.226;5.798;2022-07-01T12:24:50;1.03;;;0.77;;
14965;SDS011;7577;45.226;5.798;2022-07-01T12:27:34;0.53;;;0.53;;
14965;SDS011;7577;45.226;5.798;2022-07-01T12:30:07;1.93;;;0.50;;
14965;SDS011;7577;45.226;5.798;2022-07-01T12:32:41;0.70;;;0.60;;
14965;SDS011;7577;45.226;5.798;2022-07-01T12:35:12;2.00;;;0.70;;
14965;SDS011;7577;45.226;5.798;2022-07-01T12:48:16;1.90;;;0.70;;
14965;SDS011;7577;45.226;5.798;2022-07-01T12:50:46;0.70;;;0.70;;
14965;SDS011;7577;45.226;5.798;2022-07-01T13:03:50;0.70;;;0.70;;
14965;SDS011;7577;45.226;5.798;2022-07-01T13:06:21;0.70;;;0.70;;
14965;SDS011;7577;45.226;5.798;2022-07-01T13:09:01;0.93;;;0.83;;
14965;SDS011;7577;45.226;5.798;2022-07-01T13:11:33;0.70;;;0.70;;
14965;SDS011;7577;45.226;5.798;2022-07-01T13:14:03;0.60;;;0.60;;
14965;SDS011;7577;45.226;5.798;2022-07-01T13:16:33;1.10;;;0.80;;
14965;SDS011;7577;45.226;5.798;2022-07-01T13:29:54;1.53;;;0.80;;
14965;SDS011;7577;45.226;5.798;2022-07-01T13:32:24;0.70;;;0.70;;
14965;SDS011;7577;45.226;5.798;2022-07-01T13:35:08;0.50;;;0.50;;
14965;SDS011;7577;45.226;5.798;2022-07-01T13:37:41;0.70;;;0.70;;
14965;SDS011;7577;45.226;5.798;2022-07-01T13:40:21;1.10;;;0.80;;
14965;SDS011;7577;45.226;5.798;2022-07-01T13:42:51;0.50;;;0.50;;
14965;SDS011;7577;45.226;5.798;2022-07-01T13:45:22;0.73;;;0.70;;
14965;SDS011;7577;45.226;5.798;2022-07-01T13:58:31;1.37;;;0.80;;
14965;SDS011;7577;45.226;5.798;2022-07-01T14:14:27;2.27;;;0.60;;
14965;SDS011;7577;45.226;5.798;2022-07-01T14:16:58;0.70;;;0.70;;
14965;SDS011;7577;45.226;5.798;2022-07-01T14:19:45;1.43;;;0.77;;
14965;SDS011;7577;45.226;5.798;2022-07-01T14:22:16;1.60;;;0.80;;
14965;SDS011;7577;45.226;5.798;2022-07-01T14:24:46;0.70;;;0.70;;
14965;SDS011;7577;45.226;5.798;2022-07-01T14:38:07;1.00;;;0.70;;
14965;SDS011;7577;45.226;5.798;2022-07-01T14:40:37;1.67;;;0.60;;
14965;SDS011;7577;45.226;5.798;2022-07-01T14:43:21;0.87;;;0.73;;
14965;SDS011;7577;45.226;5.798;2022-07-01T14:45:51;1.53;;;0.53;;
14965;SDS011;7577;45.226;5.798;2022-07-01T15:14:05;1.23;;;0.70;;
14965;SDS011;7577;45.226;5.798;2022-07-01T15:16:47;0.87;;;0.60;;
14965;SDS011;7577;45.226;5.798;2022-07-01T15:19:17;0.93;;;0.70;;
14965;SDS011;7577;45.226;5.798;2022-07-01T15:22:01;0.50;;;0.50;;
14965;SDS011;7577;45.226;5.798;2022-07-01T15:44:11;0.53;;;0.53;;
14965;SDS011;7577;45.226;5.798;2022-07-01T15:46:42;1.50;;;0.60;;
14965;SDS011;7577;45.226;5.798;2022-07-01T16:37:44;0.57;;;0.57;;
14965;SDS011;7577;45.226;5.798;2022-07-01T16:40:28;0.50;;;0.30;;
14965;SDS011;7577;45.226;5.798;2022-07-01T16:43:14;0.77;;;0.40;;
14965;SDS011;7577;45.226;5.798;2022-07-01T16:49:20;0.50;;;0.50;;
14965;SDS011;7577;45.226;5.798;2022-07-01T16:52:33;0.70;;;0.50;;
14965;SDS011;7577;45.226;5.798;2022-07-01T17:22:33;0.77;;;0.50;;
14965;SDS011;7577;45.226;5.798;2022-07-01T17:58:30;1.03;;;0.40;;
14965;SDS011;7577;45.226;5.798;2022-07-01T18:02:02;0.43;;;0.43;;
14965;SDS011;7577;45.226;5.798;2022-07-01T18:14:48;0.67;;;0.67;;
14965;SDS011;7577;45.226;5.798;2022-07-01T18:17:41;0.40;;;0.40;;
14965;SDS011;7577;45.226;5.798;2022-07-01T18:20:22;0.60;;;0.60;;
14965;SDS011;7577;45.226;5.798;2022-07-01T18:37:07;0.50;;;0.50;;
14965;SDS011;7577;45.226;5.798;2022-07-01T18:39:38;1.00;;;0.70;;
14965;SDS011;7577;45.226;5.798;2022-07-01T18:42:33;0.50;;;0.50;;
14965;SDS011;7577;45.226;5.798;2022-07-01T18:45:07;0.60;;;0.60;;
14965;SDS011;7577;45.226;5.798;2022-07-01T18:50:48;0.50;;;0.50;;
14965;SDS011;7577;45.226;5.798;2022-07-01T18:56:31;0.50;;;0.50;;
14965;SDS011;7577;45.226;5.798;2022-07-01T18:59:28;0.90;;;0.50;;
14965;SDS011;7577;45.226;5.798;2022-07-01T19:02:34;0.53;;;0.50;;
14965;SDS011;7577;45.226;5.798;2022-07-01T19:18:48;0.50;;;0.50;;
14965;SDS011;7577;45.226;5.798;2022-07-01T20:34:20;1.70;;;0.50;;
14965;SDS011;7577;45.226;5.798;2022-07-01T20:37:09;0.77;;;0.50;;
14965;SDS011;7577;45.226;5.798;2022-07-01T20:39:39;1.10;;;0.60;;
14965;SDS011;7577;45.226;5.798;2022-07-01T20:42:09;2.00;;;0.77;;
14965;SDS011;7577;45.226;5.798;2022-07-01T20:44:53;2.70;;;0.57;;
14965;SDS011;7577;45.226;5.798;2022-07-01T20:47:23;1.10;;;0.70;;
14965;SDS011;7577;45.226;5.798;2022-07-01T20:50:04;0.97;;;0.77;;
14965;SDS011;7577;45.226;5.798;2022-07-01T20:52:37;0.50;;;0.50;;
14965;SDS011;7577;45.226;5.798;2022-07-01T21:05:45;0.67;;;0.67;;
14965;SDS011;7577;45.226;5.798;2022-07-01T21:08:16;1.30;;;0.53;;
14965;SDS011;7577;45.226;5.798;2022-07-01T21:10:57;0.80;;;0.70;;
14965;SDS011;7577;45.226;5.798;2022-07-01T21:16:13;0.90;;;0.57;;
14965;SDS011;7577;45.226;5.798;2022-07-01T21:18:45;0.60;;;0.60;;
14965;SDS011;7577;45.226;5.798;2022-07-01T21:21:26;0.87;;;0.60;;
14965;SDS011;7577;45.226;5.798;2022-07-01T21:23:56;0.47;;;0.47;;
14965;SDS011;7577;45.226;5.798;2022-07-01T21:26:50;0.80;;;0.50;;
14965;SDS011;7577;45.226;5.798;2022-07-01T21:29:20;1.93;;;0.70;;
14965;SDS011;7577;45.226;5.798;2022-07-01T21:32:10;2.73;;;0.63;;
14965;SDS011;7577;45.226;5.798;2022-07-01T21:34:41;0.50;;;0.50;;
14965;SDS011;7577;45.226;5.798;2022-07-01T21:53:22;1.83;;;1.00;;
14965;SDS011;7577;45.226;5.798;2022-07-01T21:56:03;1.30;;;0.47;;
14965;SDS011;7577;45.226;5.798;2022-07-01T21:58:36;0.87;;;0.70;;
14965;SDS011;7577;45.226;5.798;2022-07-01T22:01:27;1.17;;;0.60;;
14965;SDS011;7577;45.226;5.798;2022-07-01T22:03:58;0.60;;;0.50;;
14965;SDS011;7577;45.226;5.798;2022-07-01T22:06:49;1.03;;;0.57;;
14965;SDS011;7577;45.226;5.798;2022-07-01T22:09:26;0.50;;;0.50;;
14965;SDS011;7577;45.226;5.798;2022-07-01T22:12:08;1.90;;;0.60;;
14965;SDS011;7577;45.226;5.798;2022-07-01T22:14:42;1.20;;;0.60;;
14965;SDS011;7577;45.226;5.798;2022-07-01T22:17:14;0.50;;;0.50;;
14965;SDS011;7577;45.226;5.798;2022-07-01T22:19:45;0.93;;;0.60;;
14965;SDS011;7577;45.226;5.798;2022-07-01T22:22:29;1.30;;;1.10;;
14965;SDS011;7577;45.226;5.798;2022-07-01T22:25:01;1.10;;;0.70;;
14965;SDS011;7577;45.226;5.798;2022-07-01T22:27:45;2.20;;;0.67;;
14965;SDS011;7577;45.226;5.798;2022-07-01T22:30:17;1.20;;;0.50;;
14965;SDS011;7577;45.226;5.798;2022-07-01T22:35:37;3.10;;;0.50;;
14965;SDS011;7577;45.226;5.798;2022-07-01T22:38:10;1.43;;;0.60;;
14965;SDS011;7577;45.226;5.798;2022-07-01T22:51:30;1.07;;;0.57;;
14965;SDS011;7577;45.226;5.798;2022-07-01T22:54:14;0.97;;;0.60;;
14965;SDS011;7577;45.226;5.798;2022-07-01T23:23:15;2.00;;;0.57;;
14965;SDS011;7577;45.226;5.798;2022-07-01T23:25:48;1.60;;;0.60;;
14965;SDS011;7577;45.226;5.798;2022-07-01T23:31:35;0.97;;;0.40;;
14965;SDS011;7577;45.226;5.798;2022-07-01T23:34:16;0.90;;;0.70;;
14965;SDS011;7577;45.226;5.798;2022-07-01T23:40:02;1.43;;;0.60;;
14965;SDS011;7577;45.226;5.798;2022-07-01T23:43:01;0.70;;;0.70;;
14965;SDS011;7577;45.226;5.798;2022-07-01T23:56:44;0.70;;;0.60;;
14965;SDS011;7577;45.226;5.798;2022-07-01T23:59:14;1.33;;;0.50;;
